sensor_id;sensor_type;location;lat;lon;timestamp;pressure;altitude;pressure_sealevel;temperature;humidity
78986;BME280;68384;55.750;48.746;2023-04-25T00:01:03;99645.50;;;11.72;40.85
78986;BME280;68384;55.750;48.746;2023-04-25T00:02:07;99651.59;;;11.73;40.65
78986;BME280;68384;55.750;48.746;2023-04-25T00:03:10;99651.59;;;11.73;40.75
78986;BME280;68384;55.750;48.746;2023-04-25T00:04:14;99648.13;;;11.74;40.64
78986;BME280;68384;55.750;48.746;2023-04-25T00:05:18;99652.41;;;11.72;40.71
78986;BME280;68384;55.750;48.746;2023-04-25T00:06:25;99649.84;;;11.73;40.49
78986;BME280;68384;55.750;48.746;2023-04-25T00:07:28;99651.59;;;11.73;40.59
78986;BME280;68384;55.750;48.746;2023-04-25T00:08:33;99649.81;;;11.72;40.64
78986;BME280;68384;55.750;48.746;2023-04-25T00:09:36;99649.78;;;11.70;40.62
78986;BME280;68384;55.750;48.746;2023-04-25T00:10:39;99644.59;;;11.70;40.61
78986;BME280;68384;55.750;48.746;2023-04-25T00:11:42;99650.56;;;11.68;40.98
78986;BME280;68384;55.750;48.746;2023-04-25T00:12:45;99653.16;;;11.68;40.80
78986;BME280;68384;55.750;48.746;2023-04-25T00:13:49;99647.97;;;11.68;41.02
78986;BME280;68384;55.750;48.746;2023-04-25T00:14:52;99654.03;;;11.67;40.97
78986;BME280;68384;55.750;48.746;2023-04-25T00:15:58;99655.72;;;11.66;40.78
78986;BME280;68384;55.750;48.746;2023-04-25T00:17:02;99655.72;;;11.65;41.01
78986;BME280;68384;55.750;48.746;2023-04-25T00:18:06;99657.41;;;11.64;41.04
78986;BME280;68384;55.750;48.746;2023-04-25T00:19:09;99656.53;;;11.64;41.11
78986;BME280;68384;55.750;48.746;2023-04-25T00:20:12;99657.38;;;11.63;41.10
78986;BME280;68384;55.750;48.746;2023-04-25T00:21:15;99660.81;;;11.62;40.86
78986;BME280;68384;55.750;48.746;2023-04-25T00:22:20;99659.06;;;11.61;41.19
78986;BME280;68384;55.750;48.746;2023-04-25T00:23:24;99654.75;;;11.61;41.28
78986;BME280;68384;55.750;48.746;2023-04-25T00:24:28;99656.47;;;11.61;40.91
78986;BME280;68384;55.750;48.746;2023-04-25T00:25:32;99663.38;;;11.60;41.34
78986;BME280;68384;55.750;48.746;2023-04-25T00:26:35;99660.75;;;11.59;41.10
78986;BME280;68384;55.750;48.746;2023-04-25T00:27:38;99658.09;;;11.57;41.23
78986;BME280;68384;55.750;48.746;2023-04-25T00:28:41;99660.69;;;11.57;41.20
78986;BME280;68384;55.750;48.746;2023-04-25T00:29:45;99664.13;;;11.56;41.17
78986;BME280;68384;55.750;48.746;2023-04-25T00:30:47;99665.84;;;11.56;41.36
78986;BME280;68384;55.750;48.746;2023-04-25T00:31:51;99661.50;;;11.55;41.35
78986;BME280;68384;55.750;48.746;2023-04-25T00:32:54;99664.06;;;11.53;41.19
78986;BME280;68384;55.750;48.746;2023-04-25T00:33:57;99659.75;;;11.54;41.41
78986;BME280;68384;55.750;48.746;2023-04-25T00:34:59;99665.78;;;11.53;41.49
78986;BME280;68384;55.750;48.746;2023-04-25T00:36:04;99659.66;;;11.51;41.37
78986;BME280;68384;55.750;48.746;2023-04-25T00:37:08;99661.34;;;11.48;41.35
78986;BME280;68384;55.750;48.746;2023-04-25T00:38:11;99667.38;;;11.47;41.59
78986;BME280;68384;55.750;48.746;2023-04-25T00:39:15;99661.28;;;11.45;41.49
78986;BME280;68384;55.750;48.746;2023-04-25T00:40:19;99663.00;;;11.45;41.69
78986;BME280;68384;55.750;48.746;2023-04-25T00:41:24;99662.94;;;11.43;41.69
78986;BME280;68384;55.750;48.746;2023-04-25T00:42:28;99662.94;;;11.43;41.59
78986;BME280;68384;55.750;48.746;2023-04-25T00:43:32;99655.13;;;11.42;41.82
78986;BME280;68384;55.750;48.746;2023-04-25T00:44:37;99659.41;;;11.40;41.85
78986;BME280;68384;55.750;48.746;2023-04-25T00:45:41;99657.63;;;11.39;42.00
78986;BME280;68384;55.750;48.746;2023-04-25T00:46:47;99655.03;;;11.39;42.02
78986;BME280;68384;55.750;48.746;2023-04-25T00:47:51;99655.84;;;11.36;42.18
78986;BME280;68384;55.750;48.746;2023-04-25T00:48:53;99654.94;;;11.36;42.00
78986;BME280;68384;55.750;48.746;2023-04-25T00:49:57;99659.25;;;11.35;42.10
78986;BME280;68384;55.750;48.746;2023-04-25T00:51:00;99654.03;;;11.34;42.28
78986;BME280;68384;55.750;48.746;2023-04-25T00:52:03;99654.00;;;11.32;42.13
78986;BME280;68384;55.750;48.746;2023-04-25T00:53:06;99661.78;;;11.32;42.27
78986;BME280;68384;55.750;48.746;2023-04-25T00:54:12;99664.31;;;11.29;42.39
78986;BME280;68384;55.750;48.746;2023-04-25T00:55:16;99659.13;;;11.29;42.34
78986;BME280;68384;55.750;48.746;2023-04-25T00:56:22;99666.03;;;11.29;42.23
78986;BME280;68384;55.750;48.746;2023-04-25T00:57:25;99657.34;;;11.28;42.52
78986;BME280;68384;55.750;48.746;2023-04-25T00:58:29;99665.13;;;11.28;42.58
78986;BME280;68384;55.750;48.746;2023-04-25T00:59:31;99664.22;;;11.26;42.42
78986;BME280;68384;55.750;48.746;2023-04-25T01:00:35;99658.97;;;11.25;42.34
78986;BME280;68384;55.750;48.746;2023-04-25T01:01:39;99664.22;;;11.26;42.31
78986;BME280;68384;55.750;48.746;2023-04-25T01:02:44;99665.03;;;11.24;42.45
78986;BME280;68384;55.750;48.746;2023-04-25T01:03:49;99659.84;;;11.24;42.61
78986;BME280;68384;55.750;48.746;2023-04-25T01:04:53;99662.38;;;11.22;42.33
78986;BME280;68384;55.750;48.746;2023-04-25T01:05:56;99659.75;;;11.21;42.68
78986;BME280;68384;55.750;48.746;2023-04-25T01:06:59;99665.78;;;11.20;42.44
78986;BME280;68384;55.750;48.746;2023-04-25T01:08:02;99655.38;;;11.18;42.49
78986;BME280;68384;55.750;48.746;2023-04-25T01:09:05;99665.69;;;11.17;42.51
78986;BME280;68384;55.750;48.746;2023-04-25T01:10:09;99664.81;;;11.16;42.67
78986;BME280;68384;55.750;48.746;2023-04-25T01:11:12;99654.41;;;11.16;42.69
78986;BME280;68384;55.750;48.746;2023-04-25T01:12:16;99660.47;;;11.15;42.64
78986;BME280;68384;55.750;48.746;2023-04-25T01:13:20;99660.41;;;11.14;42.73
78986;BME280;68384;55.750;48.746;2023-04-25T01:14:23;99658.69;;;11.14;42.72
78986;BME280;68384;55.750;48.746;2023-04-25T01:15:26;99650.03;;;11.14;42.78
78986;BME280;68384;55.750;48.746;2023-04-25T01:16:30;99645.56;;;11.08;42.63
78986;BME280;68384;55.750;48.746;2023-04-25T01:17:34;99657.78;;;11.12;42.69
78986;BME280;68384;55.750;48.746;2023-04-25T01:18:38;99655.19;;;11.12;42.73
78986;BME280;68384;55.750;48.746;2023-04-25T01:19:42;99653.50;;;11.13;43.03
78986;BME280;68384;55.750;48.746;2023-04-25T01:20:46;99650.91;;;11.14;43.05
78986;BME280;68384;55.750;48.746;2023-04-25T01:21:51;99642.25;;;11.14;43.02
78986;BME280;68384;55.750;48.746;2023-04-25T01:22:54;99646.63;;;11.16;43.06
78986;BME280;68384;55.750;48.746;2023-04-25T01:23:58;99651.03;;;11.19;43.18
78986;BME280;68384;55.750;48.746;2023-04-25T01:25:01;99643.31;;;11.20;43.05
78986;BME280;68384;55.750;48.746;2023-04-25T01:26:06;99643.34;;;11.22;42.88
78986;BME280;68384;55.750;48.746;2023-04-25T01:27:10;99641.69;;;11.25;43.08
78986;BME280;68384;55.750;48.746;2023-04-25T01:28:15;99650.41;;;11.27;43.15
78986;BME280;68384;55.750;48.746;2023-04-25T01:29:18;99649.59;;;11.30;42.92
78986;BME280;68384;55.750;48.746;2023-04-25T01:30:22;99652.25;;;11.31;42.73
78986;BME280;68384;55.750;48.746;2023-04-25T01:31:25;99651.44;;;11.34;42.74
78986;BME280;68384;55.750;48.746;2023-04-25T01:32:30;99652.34;;;11.36;42.74
78986;BME280;68384;55.750;48.746;2023-04-25T01:33:40;99650.66;;;11.38;42.67
78986;BME280;68384;55.750;48.746;2023-04-25T01:34:44;99653.31;;;11.39;42.73
78986;BME280;68384;55.750;48.746;2023-04-25T01:35:46;99651.63;;;11.41;42.54
78986;BME280;68384;55.750;48.746;2023-04-25T01:36:52;99652.47;;;11.40;42.73
78986;BME280;68384;55.750;48.746;2023-04-25T01:37:55;99653.31;;;11.39;42.17
78986;BME280;68384;55.750;48.746;2023-04-25T01:38:59;99656.81;;;11.40;42.46
78986;BME280;68384;55.750;48.746;2023-04-25T01:40:04;99652.44;;;11.39;42.24
78986;BME280;68384;55.750;48.746;2023-04-25T01:41:08;99650.66;;;11.38;42.05
78986;BME280;68384;55.750;48.746;2023-04-25T01:42:10;99648.06;;;11.36;41.92
78986;BME280;68384;55.750;48.746;2023-04-25T01:43:14;99653.19;;;11.35;42.07
78986;BME280;68384;55.750;48.746;2023-04-25T01:44:16;99647.97;;;11.33;42.14
78986;BME280;68384;55.750;48.746;2023-04-25T01:45:20;99645.38;;;11.33;42.26
78986;BME280;68384;55.750;48.746;2023-04-25T01:46:23;99647.16;;;11.34;42.56
78986;BME280;68384;55.750;48.746;2023-04-25T01:47:27;99648.78;;;11.32;42.48
78986;BME280;68384;55.750;48.746;2023-04-25T01:48:32;99643.66;;;11.34;42.65
78986;BME280;68384;55.750;48.746;2023-04-25T01:49:36;99655.84;;;11.36;42.66
78986;BME280;68384;55.750;48.746;2023-04-25T01:50:39;99646.34;;;11.37;42.63
78986;BME280;68384;55.750;48.746;2023-04-25T01:51:44;99648.94;;;11.37;42.61
78986;BME280;68384;55.750;48.746;2023-04-25T01:52:48;99651.63;;;11.40;42.53
78986;BME280;68384;55.750;48.746;2023-04-25T01:53:52;99642.94;;;11.39;42.62
78986;BME280;68384;55.750;48.746;2023-04-25T01:54:57;99643.84;;;11.41;42.27
78986;BME280;68384;55.750;48.746;2023-04-25T01:56:01;99649.09;;;11.43;42.43
78986;BME280;68384;55.750;48.746;2023-04-25T01:57:03;99647.34;;;11.43;42.37
78986;BME280;68384;55.750;48.746;2023-04-25T01:58:07;99646.53;;;11.44;42.34
78986;BME280;68384;55.750;48.746;2023-04-25T01:59:11;99645.69;;;11.45;42.21
78986;BME280;68384;55.750;48.746;2023-04-25T02:00:15;99647.44;;;11.46;42.30
78986;BME280;68384;55.750;48.746;2023-04-25T02:01:20;99645.69;;;11.45;42.29
78986;BME280;68384;55.750;48.746;2023-04-25T02:02:24;99643.09;;;11.45;42.23
78986;BME280;68384;55.750;48.746;2023-04-25T02:03:27;99650.03;;;11.46;42.18
78986;BME280;68384;55.750;48.746;2023-04-25T02:04:31;99647.56;;;11.51;42.15
78986;BME280;68384;55.750;48.746;2023-04-25T02:05:34;99655.38;;;11.51;42.05
78986;BME280;68384;55.750;48.746;2023-04-25T02:06:39;99645.84;;;11.52;42.12
78986;BME280;68384;55.750;48.746;2023-04-25T02:07:41;99652.78;;;11.53;41.99
78986;BME280;68384;55.750;48.746;2023-04-25T02:08:46;99645.91;;;11.55;42.02
78986;BME280;68384;55.750;48.746;2023-04-25T02:09:48;99652.88;;;11.56;42.05
78986;BME280;68384;55.750;48.746;2023-04-25T02:10:52;99644.25;;;11.57;41.96
78986;BME280;68384;55.750;48.746;2023-04-25T02:11:55;99646.88;;;11.58;41.75
78986;BME280;68384;55.750;48.746;2023-04-25T02:12:59;99650.38;;;11.60;41.59
78986;BME280;68384;55.750;48.746;2023-04-25T02:14:02;99652.16;;;11.63;41.95
78986;BME280;68384;55.750;48.746;2023-04-25T02:15:05;99656.53;;;11.64;41.75
78986;BME280;68384;55.750;48.746;2023-04-25T02:16:08;99649.66;;;11.66;41.52
78986;BME280;68384;55.750;48.746;2023-04-25T02:17:12;99648.84;;;11.68;41.60
78986;BME280;68384;55.750;48.746;2023-04-25T02:18:15;99653.25;;;11.71;41.68
78986;BME280;68384;55.750;48.746;2023-04-25T02:19:19;99659.41;;;11.74;41.72
78986;BME280;68384;55.750;48.746;2023-04-25T02:20:23;99662.94;;;11.78;41.64
78986;BME280;68384;55.750;48.746;2023-04-25T02:21:27;99656.03;;;11.78;41.62
78986;BME280;68384;55.750;48.746;2023-04-25T02:22:29;99656.16;;;11.83;41.41
78986;BME280;68384;55.750;48.746;2023-04-25T02:23:33;99662.25;;;11.85;41.66
78986;BME280;68384;55.750;48.746;2023-04-25T02:24:37;99659.72;;;11.88;41.52
78986;BME280;68384;55.750;48.746;2023-04-25T02:25:41;99660.63;;;11.90;41.28
78986;BME280;68384;55.750;48.746;2023-04-25T02:26:43;99653.78;;;11.92;41.60
78986;BME280;68384;55.750;48.746;2023-04-25T02:27:48;99659.09;;;11.98;41.14
78986;BME280;68384;55.750;48.746;2023-04-25T02:28:51;99656.63;;;12.02;41.26
78986;BME280;68384;55.750;48.746;2023-04-25T02:29:55;99659.25;;;12.04;41.07
78986;BME280;68384;55.750;48.746;2023-04-25T02:30:57;99668.03;;;12.07;41.33
78986;BME280;68384;55.750;48.746;2023-04-25T02:32:00;99664.63;;;12.10;40.94
78986;BME280;68384;55.750;48.746;2023-04-25T02:33:03;99659.50;;;12.13;41.07
78986;BME280;68384;55.750;48.746;2023-04-25T02:34:07;99667.38;;;12.16;40.89
78986;BME280;68384;55.750;48.746;2023-04-25T02:35:09;99664.84;;;12.19;40.88
78986;BME280;68384;55.750;48.746;2023-04-25T02:36:13;99663.16;;;12.21;40.62
78986;BME280;68384;55.750;48.746;2023-04-25T02:37:15;99664.97;;;12.25;40.46
78986;BME280;68384;55.750;48.746;2023-04-25T02:38:19;99664.19;;;12.29;40.91
78986;BME280;68384;55.750;48.746;2023-04-25T02:39:22;99660.78;;;12.32;40.72
78986;BME280;68384;55.750;48.746;2023-04-25T02:40:28;99653.94;;;12.35;40.93
78986;BME280;68384;55.750;48.746;2023-04-25T02:41:32;99654.88;;;12.39;40.95
78986;BME280;68384;55.750;48.746;2023-04-25T02:42:35;99657.53;;;12.42;40.94
78986;BME280;68384;55.750;48.746;2023-04-25T02:43:39;99663.75;;;12.48;40.85
78986;BME280;68384;55.750;48.746;2023-04-25T02:44:41;99662.94;;;12.51;40.73
78986;BME280;68384;55.750;48.746;2023-04-25T02:45:45;99667.41;;;12.56;40.70
78986;BME280;68384;55.750;48.746;2023-04-25T02:46:47;99668.38;;;12.61;40.56
78986;BME280;68384;55.750;48.746;2023-04-25T02:47:51;99665.84;;;12.66;40.46
78986;BME280;68384;55.750;48.746;2023-04-25T02:48:54;99662.47;;;12.69;40.24
78986;BME280;68384;55.750;48.746;2023-04-25T02:49:57;99666.84;;;12.71;40.32
78986;BME280;68384;55.750;48.746;2023-04-25T02:51:00;99666.09;;;12.77;40.39
78986;BME280;68384;55.750;48.746;2023-04-25T02:52:03;99669.59;;;12.79;40.25
78986;BME280;68384;55.750;48.746;2023-04-25T02:53:06;99672.22;;;12.80;40.10
78986;BME280;68384;55.750;48.746;2023-04-25T02:54:10;99667.97;;;12.82;40.19
78986;BME280;68384;55.750;48.746;2023-04-25T02:55:12;99669.75;;;12.85;40.12
78986;BME280;68384;55.750;48.746;2023-04-25T02:56:18;99675.84;;;12.87;40.13
78986;BME280;68384;55.750;48.746;2023-04-25T02:57:20;99674.16;;;12.89;40.09
78986;BME280;68384;55.750;48.746;2023-04-25T02:58:24;99668.09;;;12.90;39.77
78986;BME280;68384;55.750;48.746;2023-04-25T02:59:27;99670.72;;;12.91;39.57
78986;BME280;68384;55.750;48.746;2023-04-25T03:00:31;99676.88;;;12.95;39.50
78986;BME280;68384;55.750;48.746;2023-04-25T03:01:34;99683.84;;;12.96;39.36
78986;BME280;68384;55.750;48.746;2023-04-25T03:02:37;99672.50;;;12.92;39.82
78986;BME280;68384;55.750;48.746;2023-04-25T03:03:41;99678.66;;;12.96;39.35
78986;BME280;68384;55.750;48.746;2023-04-25T03:04:44;99685.63;;;12.98;39.49
78986;BME280;68384;55.750;48.746;2023-04-25T03:05:48;99681.31;;;12.99;39.31
78986;BME280;68384;55.750;48.746;2023-04-25T03:06:51;99680.44;;;12.98;39.31
78986;BME280;68384;55.750;48.746;2023-04-25T03:07:55;99687.47;;;13.04;39.30
78986;BME280;68384;55.750;48.746;2023-04-25T03:08:57;99682.28;;;13.04;39.38
78986;BME280;68384;55.750;48.746;2023-04-25T03:10:00;99688.44;;;13.09;39.45
78986;BME280;68384;55.750;48.746;2023-04-25T03:11:03;99688.50;;;13.12;39.34
78986;BME280;68384;55.750;48.746;2023-04-25T03:12:09;99683.31;;;13.12;39.30
78986;BME280;68384;55.750;48.746;2023-04-25T03:13:12;99695.50;;;13.16;39.23
78986;BME280;68384;55.750;48.746;2023-04-25T03:14:15;99689.47;;;13.17;39.14
78986;BME280;68384;55.750;48.746;2023-04-25T03:15:18;99698.16;;;13.19;39.26
78986;BME280;68384;55.750;48.746;2023-04-25T03:16:21;99695.56;;;13.19;39.35
78986;BME280;68384;55.750;48.746;2023-04-25T03:17:24;99696.47;;;13.21;39.12
78986;BME280;68384;55.750;48.746;2023-04-25T03:18:28;99699.13;;;13.22;39.17
78986;BME280;68384;55.750;48.746;2023-04-25T03:19:31;99694.84;;;13.26;39.18
78986;BME280;68384;55.750;48.746;2023-04-25T03:20:34;99687.94;;;13.28;39.09
78986;BME280;68384;55.750;48.746;2023-04-25T03:21:37;99688.84;;;13.30;39.10
78986;BME280;68384;55.750;48.746;2023-04-25T03:22:41;99694.16;;;13.35;38.88
78986;BME280;68384;55.750;48.746;2023-04-25T03:23:43;99696.88;;;13.39;38.85
78986;BME280;68384;55.750;48.746;2023-04-25T03:24:47;99686.50;;;13.42;38.69
78986;BME280;68384;55.750;48.746;2023-04-25T03:25:49;99689.19;;;13.45;38.97
78986;BME280;68384;55.750;48.746;2023-04-25T03:26:53;99690.97;;;13.49;38.65
78986;BME280;68384;55.750;48.746;2023-04-25T03:27:56;99691.88;;;13.51;38.46
78986;BME280;68384;55.750;48.746;2023-04-25T03:29:00;99692.78;;;13.53;38.33
78986;BME280;68384;55.750;48.746;2023-04-25T03:30:03;99694.56;;;13.56;38.30
78986;BME280;68384;55.750;48.746;2023-04-25T03:31:07;99695.44;;;13.56;38.29
78986;BME280;68384;55.750;48.746;2023-04-25T03:32:10;99690.31;;;13.61;38.42
78986;BME280;68384;55.750;48.746;2023-04-25T03:33:14;99692.97;;;13.64;38.35
78986;BME280;68384;55.750;48.746;2023-04-25T03:34:17;99698.25;;;13.68;38.31
78986;BME280;68384;55.750;48.746;2023-04-25T03:35:19;99694.00;;;13.73;38.42
78986;BME280;68384;55.750;48.746;2023-04-25T03:36:25;99695.81;;;13.77;38.50
78986;BME280;68384;55.750;48.746;2023-04-25T03:37:29;99699.38;;;13.82;38.52
78986;BME280;68384;55.750;48.746;2023-04-25T03:38:32;99697.72;;;13.88;38.47
78986;BME280;68384;55.750;48.746;2023-04-25T03:39:35;99691.72;;;13.93;38.51
78986;BME280;68384;55.750;48.746;2023-04-25T03:40:38;99697.94;;;14.00;38.40
78986;BME280;68384;55.750;48.746;2023-04-25T03:41:41;99690.19;;;14.04;38.53
78986;BME280;68384;55.750;48.746;2023-04-25T03:42:44;99698.09;;;14.10;38.58
78986;BME280;68384;55.750;48.746;2023-04-25T03:43:49;99692.97;;;14.16;38.60
78986;BME280;68384;55.750;48.746;2023-04-25T03:44:52;99696.56;;;14.23;38.48
78986;BME280;68384;55.750;48.746;2023-04-25T03:45:56;99697.47;;;14.26;38.67
78986;BME280;68384;55.750;48.746;2023-04-25T03:46:58;99695.81;;;14.33;38.53
78986;BME280;68384;55.750;48.746;2023-04-25T03:48:03;99698.47;;;14.36;38.64
78986;BME280;68384;55.750;48.746;2023-04-25T03:49:06;99702.91;;;14.41;38.75
78986;BME280;68384;55.750;48.746;2023-04-25T03:50:10;99699.50;;;14.46;38.53
78986;BME280;68384;55.750;48.746;2023-04-25T03:51:13;99699.59;;;14.50;38.75
78986;BME280;68384;55.750;48.746;2023-04-25T03:52:16;99697.91;;;14.55;38.60
78986;BME280;68384;55.750;48.746;2023-04-25T03:53:19;99698.84;;;14.60;38.71
78986;BME280;68384;55.750;48.746;2023-04-25T03:54:22;99698.06;;;14.64;38.66
78986;BME280;68384;55.750;48.746;2023-04-25T03:55:26;99698.13;;;14.69;38.80
78986;BME280;68384;55.750;48.746;2023-04-25T03:56:28;99694.75;;;14.76;38.48
78986;BME280;68384;55.750;48.746;2023-04-25T03:57:32;99696.56;;;14.81;38.52
78986;BME280;68384;55.750;48.746;2023-04-25T03:58:34;99698.34;;;14.85;38.45
78986;BME280;68384;55.750;48.746;2023-04-25T03:59:39;99695.81;;;14.93;38.58
78986;BME280;68384;55.750;48.746;2023-04-25T04:00:42;99693.25;;;14.94;38.46
78986;BME280;68384;55.750;48.746;2023-04-25T04:01:45;99689.81;;;15.00;37.93
78986;BME280;68384;55.750;48.746;2023-04-25T04:02:48;99699.47;;;15.07;37.99
78986;BME280;68384;55.750;48.746;2023-04-25T04:03:52;99704.81;;;15.15;37.91
78986;BME280;68384;55.750;48.746;2023-04-25T04:04:55;99698.72;;;15.16;38.01
78986;BME280;68384;55.750;48.746;2023-04-25T04:06:00;99708.38;;;15.23;37.12
78986;BME280;68384;55.750;48.746;2023-04-25T04:07:02;99696.25;;;15.29;37.38
78986;BME280;68384;55.750;48.746;2023-04-25T04:08:07;99698.06;;;15.33;37.33
78986;BME280;68384;55.750;48.746;2023-04-25T04:09:09;99699.84;;;15.39;37.22
78986;BME280;68384;55.750;48.746;2023-04-25T04:10:14;99696.41;;;15.43;37.08
78986;BME280;68384;55.750;48.746;2023-04-25T04:11:17;99699.03;;;15.46;36.98
78986;BME280;68384;55.750;48.746;2023-04-25T04:12:20;99697.34;;;15.49;36.97
78986;BME280;68384;55.750;48.746;2023-04-25T04:13:28;99696.50;;;15.52;36.96
78986;BME280;68384;55.750;48.746;2023-04-25T04:14:31;99707.03;;;15.56;36.92
78986;BME280;68384;55.750;48.746;2023-04-25T04:15:36;99705.28;;;15.58;36.77
78986;BME280;68384;55.750;48.746;2023-04-25T04:16:40;99707.09;;;15.63;36.80
78986;BME280;68384;55.750;48.746;2023-04-25T04:17:42;99702.78;;;15.68;36.80
78986;BME280;68384;55.750;48.746;2023-04-25T04:18:46;99705.41;;;15.72;36.67
78986;BME280;68384;55.750;48.746;2023-04-25T04:19:49;99695.88;;;15.76;36.74
78986;BME280;68384;55.750;48.746;2023-04-25T04:20:53;99698.56;;;15.80;36.45
78986;BME280;68384;55.750;48.746;2023-04-25T04:21:55;99706.44;;;15.85;36.48
78986;BME280;68384;55.750;48.746;2023-04-25T04:22:58;99700.38;;;15.90;36.45
78986;BME280;68384;55.750;48.746;2023-04-25T04:24:00;99699.53;;;15.94;36.42
78986;BME280;68384;55.750;48.746;2023-04-25T04:25:05;99702.19;;;15.99;36.49
78986;BME280;68384;55.750;48.746;2023-04-25T04:26:08;99702.19;;;16.00;36.35
78986;BME280;68384;55.750;48.746;2023-04-25T04:27:12;99698.78;;;16.07;36.29
78986;BME280;68384;55.750;48.746;2023-04-25T04:28:14;99702.31;;;16.12;36.38
78986;BME280;68384;55.750;48.746;2023-04-25T04:29:18;99704.06;;;16.16;36.07
78986;BME280;68384;55.750;48.746;2023-04-25T04:30:23;99698.00;;;16.21;36.07
78986;BME280;68384;55.750;48.746;2023-04-25T04:31:29;99700.66;;;16.25;35.95
78986;BME280;68384;55.750;48.746;2023-04-25T04:32:32;99704.16;;;16.27;35.57
78986;BME280;68384;55.750;48.746;2023-04-25T04:33:36;99697.19;;;16.31;35.57
78986;BME280;68384;55.750;48.746;2023-04-25T04:34:39;99702.44;;;16.35;35.65
78986;BME280;68384;55.750;48.746;2023-04-25T04:35:43;99694.63;;;16.38;35.47
78986;BME280;68384;55.750;48.746;2023-04-25T04:36:46;99700.75;;;16.42;35.22
78986;BME280;68384;55.750;48.746;2023-04-25T04:37:49;99702.56;;;16.46;35.16
78986;BME280;68384;55.750;48.746;2023-04-25T04:38:51;99692.06;;;16.49;35.42
78986;BME280;68384;55.750;48.746;2023-04-25T04:39:55;99706.13;;;16.54;35.54
78986;BME280;68384;55.750;48.746;2023-04-25T04:40:57;99698.28;;;16.60;35.31
78986;BME280;68384;55.750;48.746;2023-04-25T04:42:01;99699.22;;;16.65;35.30
78986;BME280;68384;55.750;48.746;2023-04-25T04:43:04;99692.25;;;16.71;35.71
78986;BME280;68384;55.750;48.746;2023-04-25T04:44:07;99689.63;;;16.76;35.16
78986;BME280;68384;55.750;48.746;2023-04-25T04:45:11;99687.94;;;16.83;35.10
78986;BME280;68384;55.750;48.746;2023-04-25T04:46:14;99694.06;;;16.88;34.88
78986;BME280;68384;55.750;48.746;2023-04-25T04:47:19;99690.63;;;16.95;34.54
78986;BME280;68384;55.750;48.746;2023-04-25T04:48:25;99694.13;;;17.00;34.43
78986;BME280;68384;55.750;48.746;2023-04-25T04:49:28;99688.03;;;17.04;34.50
78986;BME280;68384;55.750;48.746;2023-04-25T04:50:32;99691.56;;;17.06;34.59
78986;BME280;68384;55.750;48.746;2023-04-25T04:51:35;99693.31;;;17.11;34.53
78986;BME280;68384;55.750;48.746;2023-04-25T04:52:38;99694.19;;;17.16;34.32
78986;BME280;68384;55.750;48.746;2023-04-25T04:53:40;99686.34;;;17.21;34.77
78986;BME280;68384;55.750;48.746;2023-04-25T04:54:44;99691.63;;;17.27;34.40
78986;BME280;68384;55.750;48.746;2023-04-25T04:55:47;99683.75;;;17.27;34.06
78986;BME280;68384;55.750;48.746;2023-04-25T04:56:51;99680.25;;;17.29;33.99
78986;BME280;68384;55.750;48.746;2023-04-25T04:57:54;99688.13;;;17.34;33.87
78986;BME280;68384;55.750;48.746;2023-04-25T04:58:57;99695.13;;;17.38;33.61
78986;BME280;68384;55.750;48.746;2023-04-25T05:00:00;99692.50;;;17.40;33.42
78986;BME280;68384;55.750;48.746;2023-04-25T05:01:07;99690.75;;;17.42;33.64
78986;BME280;68384;55.750;48.746;2023-04-25T05:02:10;99690.75;;;17.42;33.50
78986;BME280;68384;55.750;48.746;2023-04-25T05:03:15;99693.41;;;17.43;33.23
78986;BME280;68384;55.750;48.746;2023-04-25T05:04:18;99692.53;;;17.46;33.82
78986;BME280;68384;55.750;48.746;2023-04-25T05:05:22;99690.81;;;17.48;33.63
78986;BME280;68384;55.750;48.746;2023-04-25T05:06:24;99694.28;;;17.50;33.55
78986;BME280;68384;55.750;48.746;2023-04-25T05:07:28;99694.31;;;17.51;33.51
78986;BME280;68384;55.750;48.746;2023-04-25T05:08:30;99687.34;;;17.52;33.23
78986;BME280;68384;55.750;48.746;2023-04-25T05:09:34;99683.81;;;17.53;33.15
78986;BME280;68384;55.750;48.746;2023-04-25T05:10:36;99677.72;;;17.54;33.18
78986;BME280;68384;55.750;48.746;2023-04-25T05:11:40;99686.44;;;17.53;32.90
78986;BME280;68384;55.750;48.746;2023-04-25T05:12:43;99681.22;;;17.57;32.97
78986;BME280;68384;55.750;48.746;2023-04-25T05:13:46;99672.50;;;17.60;33.07
78986;BME280;68384;55.750;48.746;2023-04-25T05:14:49;99670.75;;;17.65;32.79
78986;BME280;68384;55.750;48.746;2023-04-25T05:15:53;99672.50;;;17.66;32.51
78986;BME280;68384;55.750;48.746;2023-04-25T05:16:55;99675.09;;;17.69;32.62
78986;BME280;68384;55.750;48.746;2023-04-25T05:18:00;99683.88;;;17.71;32.78
78986;BME280;68384;55.750;48.746;2023-04-25T05:19:05;99680.38;;;17.75;32.85
78986;BME280;68384;55.750;48.746;2023-04-25T05:20:09;99687.34;;;17.77;32.96
78986;BME280;68384;55.750;48.746;2023-04-25T05:21:11;99683.00;;;17.79;33.08
78986;BME280;68384;55.750;48.746;2023-04-25T05:22:15;99678.63;;;17.83;32.84
78986;BME280;68384;55.750;48.746;2023-04-25T05:23:18;99680.38;;;17.87;32.92
78986;BME280;68384;55.750;48.746;2023-04-25T05:24:22;99677.78;;;17.93;32.94
78986;BME280;68384;55.750;48.746;2023-04-25T05:25:24;99682.97;;;17.99;32.63
78986;BME280;68384;55.750;48.746;2023-04-25T05:26:28;99678.66;;;18.04;32.95
78986;BME280;68384;55.750;48.746;2023-04-25T05:27:33;99680.38;;;18.10;32.75
78986;BME280;68384;55.750;48.746;2023-04-25T05:28:40;99676.88;;;18.15;32.54
78986;BME280;68384;55.750;48.746;2023-04-25T05:29:44;99676.84;;;18.21;32.73
78986;BME280;68384;55.750;48.746;2023-04-25T05:30:46;99680.34;;;18.26;32.38
78986;BME280;68384;55.750;48.746;2023-04-25T05:31:50;99673.38;;;18.28;32.45
78986;BME280;68384;55.750;48.746;2023-04-25T05:32:55;99677.72;;;18.31;32.30